Time;durP1;ratioP1;P1;durP2;ratioP2;P2;SDS_P1;SDS_P2;PMS_P1;PMS_P2;Temp;Humidity;BMP_temperature;BMP_pressure;BME280_temperature;BME280_humidity;BME280_pressure;Samples;Min_cycle;Max_cycle;Signal;HPM_P1;HPM_P2
2023/01/25 00:04:37;;;;;;;14.23;12.70;;;;;;;3.16;54.33;102592.13;20969239;28;20219;-87
2023/01/25 00:14:39;;;;;;;13.43;12.03;;;;;;;2.86;55.17;102584.16;20887279;28;20238;-86
2023/01/25 00:24:43;;;;;;;14.20;12.00;;;;;;;2.49;56.29;102573.59;20900100;28;20489;-86
2023/01/25 00:34:46;;;;;;;13.23;11.43;;;;;;;2.30;57.05;102571.56;20926557;28;20227;-85
2023/01/25 00:44:48;;;;;;;12.03;10.63;;;;;;;2.95;54.66;102553.47;20912660;28;20577;-87
2023/01/25 00:54:50;;;;;;;15.70;14.10;;;;;;;3.15;53.99;102551.59;20937580;28;20240;-88
2023/01/25 01:04:55;;;;;;;15.47;13.80;;;;;;;2.92;54.42;102535.31;20970532;28;20503;-88
2023/01/25 01:14:58;;;;;;;14.03;12.47;;;;;;;3.17;54.69;102535.59;20931278;28;20640;-87
2023/01/25 01:25:01;;;;;;;14.43;12.23;;;;;;;2.82;54.47;102532.13;20936367;28;20188;-87
2023/01/25 01:35:03;;;;;;;14.67;13.13;;;;;;;3.35;53.49;102535.84;20963437;28;20250;-88
2023/01/25 01:45:42;;;;;;;15.33;13.73;;;;;;;3.16;53.52;102533.88;20989729;28;20171;-87
2023/01/25 01:55:48;;;;;;;16.07;14.43;;;;;;;2.75;54.18;102526.56;21001697;28;20671;-88
2023/01/25 02:06:00;;;;;;;15.47;13.30;;;;;;;2.62;56.13;102522.91;20921437;28;20709;-87
2023/01/25 02:16:03;;;;;;;16.30;13.67;;;;;;;2.56;55.91;102530.13;20891470;28;20219;-88
2023/01/25 02:26:06;;;;;;;16.83;13.77;;;;;;;2.20;57.28;102522.13;20873362;28;20249;-88
2023/01/25 02:36:08;;;;;;;16.07;13.80;;;;;;;2.25;56.66;102527.03;20903778;28;20540;-87
2023/01/25 02:46:27;;;;;;;19.17;14.47;;;;;;;2.29;56.70;102536.63;20886424;28;20241;-87
2023/01/25 02:56:31;;;;;;;17.03;13.60;;;;;;;2.36;57.06;102524.53;20885920;28;20215;-87
2023/01/25 03:06:34;;;;;;;16.80;14.20;;;;;;;2.17;56.90;102526.16;20877351;28;20219;-87
2023/01/25 03:16:37;;;;;;;15.63;13.93;;;;;;;2.03;57.19;102513.28;20887104;28;20212;-87
2023/01/25 03:37:30;;;;;;;16.50;13.50;;;;;;;2.42;55.36;102486.84;20917889;28;20632;-87
2023/01/25 03:47:33;;;;;;;16.90;13.30;;;;;;;2.49;55.39;102469.19;20915701;28;20235;-87
2023/01/25 03:57:36;;;;;;;16.70;13.93;;;;;;;2.03;58.98;102457.09;20934978;28;20188;-86
2023/01/25 04:07:41;;;;;;;16.47;13.50;;;;;;;2.29;56.57;102448.03;20934550;28;20634;-88
2023/01/25 04:17:44;;;;;;;18.70;15.07;;;;;;;2.20;56.74;102443.75;21025155;28;20386;-88
2023/01/25 04:27:54;;;;;;;18.80;14.20;;;;;;;2.31;58.55;102420.97;20965070;28;20211;-86
2023/01/25 04:37:58;;;;;;;16.97;13.47;;;;;;;2.43;57.19;102424.84;21009041;28;20292;-87
2023/01/25 04:48:09;;;;;;;17.83;13.57;;;;;;;2.18;58.08;102410.72;20978449;28;20207;-88
2023/01/25 04:58:18;;;;;;;18.70;13.60;;;;;;;1.79;60.06;102417.81;21002248;28;20221;-87
2023/01/25 05:08:21;;;;;;;17.97;14.93;;;;;;;2.42;58.34;102401.81;21027649;28;20280;-87
2023/01/25 05:18:28;;;;;;;18.63;14.97;;;;;;;2.27;60.31;102403.91;20959314;28;20187;-87
2023/01/25 05:28:51;;;;;;;18.27;12.73;;;;;;;2.58;59.49;102403.34;21005260;28;20210;-85
2023/01/25 05:39:00;;;;;;;17.57;12.60;;;;;;;2.49;58.91;102407.41;21016723;28;20691;-88
2023/01/25 05:49:05;;;;;;;15.47;11.83;;;;;;;2.64;58.94;102413.59;20997872;28;20610;-87
2023/01/25 05:59:10;;;;;;;13.83;10.03;;;;;;;2.33;59.85;102402.25;21039196;28;20475;-87
2023/01/25 06:09:12;;;;;;;15.30;10.27;;;;;;;1.81;61.35;102406.56;20982652;28;20231;-86
2023/01/25 06:19:16;;;;;;;16.17;11.13;;;;;;;2.45;58.94;102389.47;20978059;28;20488;-86
2023/01/25 06:29:36;;;;;;;20.20;11.77;;;;;;;2.18;60.91;102392.19;21002464;28;20616;-87
2023/01/25 06:39:39;;;;;;;19.13;11.80;;;;;;;2.54;59.18;102400.13;21036519;28;20272;-86
2023/01/25 06:49:41;;;;;;;18.53;11.00;;;;;;;2.39;59.94;102402.28;21022984;28;20260;-87
2023/01/25 06:59:43;;;;;;;18.77;11.83;;;;;;;2.68;58.98;102395.47;21058365;28;20252;-86
2023/01/25 07:09:45;;;;;;;16.10;10.67;;;;;;;2.04;61.73;102397.91;21011276;28;20230;-87
2023/01/25 07:19:47;;;;;;;19.03;11.20;;;;;;;2.33;60.13;102391.16;21026546;28;20496;-86
2023/01/25 07:29:50;;;;;;;17.77;11.30;;;;;;;1.96;60.56;102390.66;21026858;28;20218;-87
2023/01/25 07:39:52;;;;;;;18.37;11.30;;;;;;;1.70;61.66;102380.34;21018857;28;20222;-87
2023/01/25 07:49:54;;;;;;;17.87;11.10;;;;;;;1.71;62.95;102375.66;21021215;28;20215;-86
2023/01/25 07:59:56;;;;;;;20.93;11.77;;;;;;;2.15;61.23;102377.91;21030801;28;20213;-86
2023/01/25 08:09:58;;;;;;;18.83;11.70;;;;;;;2.37;60.03;102371.16;20919216;28;20216;-86
2023/01/25 08:20:01;;;;;;;18.03;11.80;;;;;;;2.26;61.00;102368.16;20962157;28;20191;-86
2023/01/25 08:30:03;;;;;;;23.10;13.47;;;;;;;1.99;62.84;102354.25;20937067;28;20273;-86
2023/01/25 08:40:06;;;;;;;21.60;13.40;;;;;;;2.71;60.57;102349.84;20945816;28;20511;-86
2023/01/25 08:50:09;;;;;;;26.23;14.10;;;;;;;2.93;59.37;102351.31;20948867;28;20219;-87
2023/01/25 09:00:13;;;;;;;24.13;14.10;;;;;;;2.36;61.55;102358.38;20922000;28;20600;-87
2023/01/25 09:10:15;;;;;;;24.83;13.77;;;;;;;2.64;60.64;102335.16;21003629;28;20334;-87
2023/01/25 09:20:17;;;;;;;23.90;13.30;;;;;;;2.41;61.95;102325.34;21005623;28;20579;-85
2023/01/25 09:30:20;;;;;;;26.90;13.83;;;;;;;2.72;60.61;102310.84;21005332;28;20288;-87
2023/01/25 09:40:33;;;;;;;25.90;14.87;;;;;;;2.17;63.79;102309.34;21014492;28;20267;-87
2023/01/25 09:50:50;;;;;;;25.37;15.00;;;;;;;2.60;61.35;102309.81;21029739;28;20226;-86
2023/01/25 10:01:03;;;;;;;24.57;14.47;;;;;;;2.30;62.74;102303.81;21031646;28;20198;-87
2023/01/25 10:11:28;;;;;;;20.70;12.60;;;;;;;2.51;61.89;102294.47;20974198;28;20687;-87
2023/01/25 10:21:34;;;;;;;26.80;14.53;;;;;;;1.99;63.37;102290.63;20969946;28;20195;-87
2023/01/25 10:31:43;;;;;;;26.53;15.47;;;;;;;2.60;60.86;102271.00;20991298;28;20223;-87
2023/01/25 10:41:50;;;;;;;24.20;15.07;;;;;;;2.04;63.43;102260.38;20972934;28;20265;-87
2023/01/25 10:51:52;;;;;;;26.00;15.63;;;;;;;2.28;62.28;102242.28;20950653;28;20223;-87
2023/01/25 11:01:56;;;;;;;29.83;16.80;;;;;;;1.87;64.69;102239.72;20968376;28;20200;-86
2023/01/25 11:12:02;;;;;;;25.43;14.37;;;;;;;1.07;67.16;102226.72;20970653;28;20505;-84
2023/01/25 11:22:18;;;;;;;101.30;49.47;;;;;;;1.71;63.57;102215.22;20985742;28;20247;-86
2023/01/25 11:32:21;;;;;;;26.17;15.67;;;;;;;2.37;61.75;102182.00;21017765;28;20219;-86
2023/01/25 11:42:31;;;;;;;26.97;15.10;;;;;;;1.19;65.63;102171.72;21007792;28;20293;-86
2023/01/25 11:52:51;;;;;;;29.60;16.37;;;;;;;2.37;61.24;102133.00;20961657;28;20269;-86
2023/01/25 12:03:06;;;;;;;31.93;18.03;;;;;;;2.59;60.37;102108.66;20972236;28;20228;-86
2023/01/25 12:13:29;;;;;;;24.77;14.73;;;;;;;2.01;62.67;102083.66;20915135;28;20223;-87
2023/01/25 12:23:38;;;;;;;33.53;20.33;;;;;;;2.40;61.50;102065.28;20892402;28;20219;-87
2023/01/25 12:33:45;;;;;;;38.20;20.73;;;;;;;2.34;61.54;102044.84;20924403;28;20273;-86
2023/01/25 12:43:51;;;;;;;23.83;15.40;;;;;;;2.60;60.20;102010.63;20908873;28;20250;-87
2023/01/25 12:53:54;;;;;;;23.87;14.80;;;;;;;2.00;62.99;101990.66;20911128;28;20620;-87
2023/01/25 13:04:02;;;;;;;18.87;11.93;;;;;;;1.91;62.22;101964.28;20926822;28;20215;-87
2023/01/25 13:14:34;;;;;;;22.87;13.17;;;;;;;2.61;59.25;101933.91;20912658;28;20254;-88
2023/01/25 13:25:02;;;;;;;24.40;15.17;;;;;;;1.94;62.06;101927.88;20930663;28;20527;-87
2023/01/25 13:35:27;;;;;;;21.77;14.33;;;;;;;3.12;57.74;101915.16;20924043;28;20228;-87
2023/01/25 13:45:31;;;;;;;21.93;13.50;;;;;;;2.36;60.55;101908.94;20879079;28;20195;-87
2023/01/25 13:55:39;;;;;;;18.50;11.03;;;;;;;2.23;60.69;101903.47;20913201;28;20314;-87
2023/01/25 14:05:48;;;;;;;23.13;13.13;;;;;;;2.96;57.86;101893.56;20947785;28;20211;-87
2023/01/25 14:16:09;;;;;;;29.57;19.00;;;;;;;2.61;59.35;101887.66;20962147;28;20214;-87
2023/01/25 14:26:25;;;;;;;29.50;19.10;;;;;;;2.24;61.38;101891.34;20962430;28;20417;-87
2023/01/25 14:36:30;;;;;;;22.43;13.60;;;;;;;2.21;60.75;101883.47;21026115;28;20566;-86
2023/01/25 14:46:34;;;;;;;26.13;16.67;;;;;;;2.51;59.63;101867.94;20989204;28;20276;-87
2023/01/25 14:56:45;;;;;;;28.63;18.37;;;;;;;2.56;59.86;101858.94;20975257;28;20269;-86
2023/01/25 15:06:52;;;;;;;23.63;14.00;;;;;;;1.78;62.29;101851.75;20978258;28;20223;-84
2023/01/25 15:16:55;;;;;;;28.90;16.50;;;;;;;1.78;62.13;101837.91;20978258;28;20559;-88
2023/01/25 15:26:57;;;;;;;35.20;20.20;;;;;;;2.54;59.12;101828.69;20963619;28;20203;-84
2023/01/25 15:37:02;;;;;;;30.93;18.37;;;;;;;2.55;59.11;101805.47;20998494;28;20524;-88
2023/01/25 15:47:04;;;;;;;32.83;19.77;;;;;;;2.04;59.91;101800.94;21015740;28;20207;-86
2023/01/25 15:57:20;;;;;;;33.90;20.97;;;;;;;2.87;57.92;101796.00;20969759;28;20223;-86
2023/01/25 16:07:27;;;;;;;34.83;21.70;;;;;;;2.23;59.48;101792.75;20949777;28;20295;-84
2023/01/25 16:17:29;;;;;;;32.07;18.80;;;;;;;2.44;59.36;101784.03;20978470;28;20255;-86
2023/01/25 16:27:34;;;;;;;38.27;22.87;;;;;;;1.78;60.88;101784.50;21012482;28;20543;-84
2023/01/25 16:37:37;;;;;;;35.63;22.60;;;;;;;2.98;58.77;101774.16;20983691;28;20273;-84
2023/01/25 16:47:39;;;;;;;39.57;24.33;;;;;;;2.69;57.60;101775.72;20972437;28;20602;-86
2023/01/25 16:57:42;;;;;;;36.33;22.43;;;;;;;2.10;58.81;101769.63;20963994;28;20238;-85
2023/01/25 17:07:52;;;;;;;37.93;23.13;;;;;;;1.53;60.71;101753.16;20999859;28;20226;-88
2023/01/25 17:17:54;;;;;;;40.80;23.83;;;;;;;2.21;58.71;101753.38;20988553;28;20570;-88
2023/01/25 17:27:56;;;;;;;38.67;23.60;;;;;;;1.90;59.34;101744.00;20974065;28;20203;-86
2023/01/25 17:37:58;;;;;;;36.90;22.90;;;;;;;2.22;58.03;101732.91;20961400;28;20281;-86
2023/01/25 17:48:01;;;;;;;37.33;22.93;;;;;;;1.86;59.58;101742.78;20963415;28;20237;-86
2023/01/25 17:58:04;;;;;;;39.27;23.57;;;;;;;1.63;60.34;101750.75;20943186;28;20676;-88
2023/01/25 18:08:06;;;;;;;45.83;28.90;;;;;;;2.17;58.32;101736.34;20969827;28;20700;-86
2023/01/25 18:18:09;;;;;;;37.00;22.90;;;;;;;1.82;59.63;101735.97;20962257;28;20289;-86
2023/01/25 18:28:12;;;;;;;33.07;20.53;;;;;;;2.14;59.95;101726.56;20961019;28;20207;-84
2023/01/25 18:38:16;;;;;;;34.20;21.83;;;;;;;1.57;60.17;101716.56;20935978;28;20898;-88
2023/01/25 18:48:29;;;;;;;36.90;21.37;;;;;;;0.75;62.43;101698.81;20975868;28;20198;-85
2023/01/25 18:58:32;;;;;;;41.77;23.67;;;;;;;1.51;60.39;101686.19;21025127;28;20231;-87
2023/01/25 19:08:38;;;;;;;41.27;25.03;;;;;;;0.92;61.75;101684.56;20993712;28;20223;-88
2023/01/25 19:18:47;;;;;;;46.53;26.33;;;;;;;1.44;58.75;101650.28;20980496;28;20219;-90
2023/01/25 19:28:49;;;;;;;41.53;24.17;;;;;;;1.78;60.24;101641.53;20987827;28;20257;-85
2023/01/25 19:38:52;;;;;;;43.40;25.07;;;;;;;2.16;58.03;101616.47;20984282;28;20287;-86
2023/01/25 19:48:55;;;;;;;41.77;25.37;;;;;;;1.88;59.47;101590.41;20975927;28;20202;-86
2023/01/25 19:58:57;;;;;;;34.63;22.17;;;;;;;1.69;58.86;101581.19;20974453;28;20264;-84
2023/01/25 20:09:01;;;;;;;52.07;30.63;;;;;;;1.89;58.44;101559.69;20978418;27;20223;-85
2023/01/25 20:19:03;;;;;;;39.97;23.47;;;;;;;1.75;58.98;101580.28;20891895;28;20294;-85
2023/01/25 20:29:06;;;;;;;42.03;23.17;;;;;;;2.17;57.41;101573.88;20911800;28;20188;-87
2023/01/25 20:39:11;;;;;;;42.17;23.10;;;;;;;1.80;59.13;101572.13;20906625;28;20223;-86
2023/01/25 20:49:15;;;;;;;28.93;18.37;;;;;;;1.21;60.75;101561.59;20906455;28;20539;-85
2023/01/25 20:59:18;;;;;;;35.93;21.27;;;;;;;1.29;60.12;101570.44;20904451;28;20237;-87
2023/01/25 21:09:25;;;;;;;39.93;21.60;;;;;;;1.44;60.26;101557.16;20944600;28;20276;-88
2023/01/25 21:19:27;;;;;;;35.60;19.90;;;;;;;1.22;61.37;101542.03;20937938;28;20211;-85
2023/01/25 21:29:29;;;;;;;38.87;20.90;;;;;;;1.45;59.05;101525.66;20963014;28;20195;-88
2023/01/25 21:39:31;;;;;;;40.60;24.23;;;;;;;1.48;59.26;101518.00;20967380;28;20223;-88
2023/01/25 21:59:58;;;;;;;44.03;24.03;;;;;;;1.06;61.29;101543.41;20993563;28;20297;-88
2023/01/25 22:10:01;;;;;;;43.70;23.70;;;;;;;0.45;62.79;101551.34;21013309;28;21087;-90
2023/01/25 22:20:03;;;;;;;49.00;27.20;;;;;;;1.29;59.61;101542.81;20965824;28;20207;-86
2023/01/25 22:30:09;;;;;;;43.93;24.77;;;;;;;1.68;58.73;101521.41;21001827;28;20288;-87
2023/01/25 22:40:11;;;;;;;44.07;25.83;;;;;;;2.05;58.42;101522.28;21028344;28;20269;-88
2023/01/25 22:50:14;;;;;;;42.63;24.53;;;;;;;0.83;61.88;101517.38;20998205;28;20259;-87
2023/01/25 23:00:17;;;;;;;44.77;25.17;;;;;;;1.47;58.24;101510.78;20976034;28;20233;-87
2023/01/25 23:10:19;;;;;;;43.30;22.50;;;;;;;0.61;61.42;101500.28;20972447;28;20693;-86
2023/01/25 23:20:22;;;;;;;41.97;22.77;;;;;;;1.37;59.08;101490.00;20990336;28;20199;-86
2023/01/25 23:30:25;;;;;;;41.73;23.57;;;;;;;1.64;57.23;101467.63;20979544;28;20241;-86
2023/01/25 23:40:28;;;;;;;40.23;23.40;;;;;;;1.42;57.57;101470.81;21023956;28;20211;-88
2023/01/25 23:50:31;;;;;;;48.00;25.27;;;;;;;1.34;57.78;101471.13;20995376;28;20273;-86
